Time;durP1;ratioP1;P1;durP2;ratioP2;P2;SDS_P1;SDS_P2;PMS_P1;PMS_P2;Temp;Humidity;BMP_temperature;BMP_pressure;BME280_temperature;BME280_humidity;BME280_pressure;Samples;Min_cycle;Max_cycle;Signal;HPM_P1;HPM_P2
2023/10/22 00:01:45;;;;;;;1.50;0.90;;;;;;;;;;5002952;28;20026;-75
2023/10/22 00:04:10;;;;;;;2.53;0.95;;;;;;;;;;5002198;28;20036;-75
2023/10/22 00:06:36;;;;;;;2.00;0.95;;;;;;;;;;5002362;28;20432;-76
2023/10/22 00:09:01;;;;;;;2.53;1.10;;;;;;;;;;5003887;28;20029;-76
2023/10/22 00:11:26;;;;;;;3.45;0.93;;;;;;;;;;5002337;28;20056;-76
2023/10/22 00:13:52;;;;;;;4.13;0.85;;;;;;;;;;4993826;28;20038;-77
2023/10/22 00:16:17;;;;;;;4.03;1.25;;;;;;;;;;5004525;28;20112;-76
2023/10/22 00:18:43;;;;;;;2.83;1.00;;;;;;;;;;5003437;28;20982;-76
2023/10/22 00:21:08;;;;;;;2.40;0.90;;;;;;;;;;5003483;28;20046;-76
2023/10/22 00:23:35;;;;;;;1.38;0.90;;;;;;;;;;5002791;28;20453;-77
2023/10/22 00:26:00;;;;;;;3.63;1.17;;;;;;;;;;5004079;28;20501;-76
2023/10/22 00:28:26;;;;;;;3.45;1.65;;;;;;;;;;5005649;28;20064;-76
2023/10/22 00:30:51;;;;;;;2.80;1.05;;;;;;;;;;5007991;28;20056;-76
2023/10/22 00:33:16;;;;;;;2.17;1.20;;;;;;;;;;5015979;28;20046;-76
2023/10/22 00:35:42;;;;;;;3.58;1.10;;;;;;;;;;5015096;28;20046;-76
2023/10/22 00:38:07;;;;;;;2.95;1.02;;;;;;;;;;5003791;28;20042;-76
2023/10/22 00:40:32;;;;;;;4.40;1.10;;;;;;;;;;5004077;28;20623;-76
2023/10/22 00:43:03;;;;;;;1.58;1.10;;;;;;;;;;5002327;28;20096;-76
2023/10/22 00:45:29;;;;;;;1.65;0.77;;;;;;;;;;5003891;28;20065;-77
2023/10/22 00:47:54;;;;;;;4.78;1.10;;;;;;;;;;5002255;28;20052;-76
2023/10/22 00:50:20;;;;;;;3.22;1.02;;;;;;;;;;5001782;28;20671;-76
2023/10/22 00:52:45;;;;;;;1.00;0.90;;;;;;;;;;5003900;28;20033;-76
2023/10/22 00:55:13;;;;;;;1.48;1.20;;;;;;;;;;5002575;28;20080;-76
2023/10/22 00:57:39;;;;;;;1.40;0.90;;;;;;;;;;5000784;28;20045;-76
2023/10/22 01:00:06;;;;;;;2.10;0.90;;;;;;;;;;5003772;28;20042;-76
2023/10/22 01:02:32;;;;;;;1.15;0.80;;;;;;;;;;5003853;28;20038;-77
2023/10/22 01:04:57;;;;;;;2.25;1.02;;;;;;;;;;5003181;28;20034;-76
2023/10/22 01:07:22;;;;;;;1.27;0.80;;;;;;;;;;5004146;28;20527;-76
2023/10/22 01:09:48;;;;;;;0.60;0.50;;;;;;;;;;5003676;28;20634;-76
2023/10/22 01:12:13;;;;;;;3.67;0.80;;;;;;;;;;4999681;28;20057;-76
2023/10/22 01:14:38;;;;;;;1.48;0.65;;;;;;;;;;4984103;28;20062;-76
2023/10/22 01:17:04;;;;;;;1.25;0.70;;;;;;;;;;4983501;28;20041;-76
2023/10/22 01:19:29;;;;;;;1.73;0.75;;;;;;;;;;4984066;28;20460;-76
2023/10/22 01:21:54;;;;;;;2.42;0.80;;;;;;;;;;4982751;28;20046;-76
2023/10/22 01:24:20;;;;;;;1.77;0.60;;;;;;;;;;5001629;28;20046;-77
2023/10/22 01:26:45;;;;;;;1.15;0.70;;;;;;;;;;5003671;28;20042;-77
2023/10/22 01:29:11;;;;;;;1.42;0.80;;;;;;;;;;5002078;28;20040;-77
2023/10/22 01:31:37;;;;;;;1.38;0.90;;;;;;;;;;5001037;28;20030;-77
2023/10/22 01:34:03;;;;;;;3.70;1.08;;;;;;;;;;5002411;28;20040;-77
2023/10/22 01:36:28;;;;;;;3.20;0.90;;;;;;;;;;5003795;28;20049;-77
2023/10/22 01:38:54;;;;;;;2.58;1.30;;;;;;;;;;5003565;28;20411;-77
2023/10/22 01:41:19;;;;;;;2.83;1.02;;;;;;;;;;5002150;28;20041;-77
2023/10/22 01:43:45;;;;;;;1.45;1.02;;;;;;;;;;5002013;28;20073;-77
2023/10/22 01:46:10;;;;;;;1.50;1.08;;;;;;;;;;5004550;28;20084;-77
2023/10/22 01:48:35;;;;;;;5.00;1.10;;;;;;;;;;5008371;28;20034;-78
2023/10/22 01:51:01;;;;;;;2.65;1.15;;;;;;;;;;5011329;28;20038;-77
2023/10/22 01:53:26;;;;;;;4.55;1.38;;;;;;;;;;5020488;28;20087;-77
2023/10/22 01:55:52;;;;;;;2.45;1.42;;;;;;;;;;5025116;28;20034;-77
2023/10/22 01:58:17;;;;;;;2.08;1.10;;;;;;;;;;5011844;28;20775;-78
2023/10/22 02:00:42;;;;;;;3.58;1.35;;;;;;;;;;5008551;28;20042;-77
2023/10/22 02:03:08;;;;;;;3.67;1.38;;;;;;;;;;5006316;28;20057;-77
2023/10/22 02:05:34;;;;;;;3.33;1.80;;;;;;;;;;5007283;28;20102;-77
2023/10/22 02:08:00;;;;;;;2.70;1.58;;;;;;;;;;5006766;28;20190;-77
2023/10/22 02:10:25;;;;;;;4.78;1.60;;;;;;;;;;5007150;28;20022;-77
2023/10/22 02:12:51;;;;;;;4.25;1.75;;;;;;;;;;5000825;28;20107;-77
2023/10/22 02:15:17;;;;;;;3.83;2.15;;;;;;;;;;4996880;28;20120;-77
2023/10/22 02:17:42;;;;;;;3.00;1.75;;;;;;;;;;5007086;28;20117;-77
2023/10/22 02:20:09;;;;;;;4.43;2.47;;;;;;;;;;5004975;28;20054;-76
2023/10/22 02:22:36;;;;;;;6.57;2.50;;;;;;;;;;5005318;28;20774;-78
2023/10/22 02:25:02;;;;;;;9.80;3.13;;;;;;;;;;5006923;28;20072;-77
2023/10/22 02:27:27;;;;;;;7.60;3.65;;;;;;;;;;5006320;28;20103;-77
2023/10/22 02:29:52;;;;;;;6.93;3.40;;;;;;;;;;5006819;28;20532;-77
2023/10/22 02:32:18;;;;;;;7.47;3.90;;;;;;;;;;5005894;28;20045;-77
2023/10/22 02:34:43;;;;;;;7.35;2.80;;;;;;;;;;5005165;28;20072;-77
2023/10/22 02:37:08;;;;;;;4.15;2.50;;;;;;;;;;5006391;28;20056;-77
2023/10/22 02:39:34;;;;;;;5.07;2.33;;;;;;;;;;5006208;28;20730;-77
2023/10/22 02:41:59;;;;;;;7.05;2.50;;;;;;;;;;5005961;28;20034;-77
2023/10/22 02:44:24;;;;;;;5.10;2.15;;;;;;;;;;5006096;28;20037;-77
2023/10/22 02:46:50;;;;;;;5.20;2.42;;;;;;;;;;5006230;28;20530;-77
2023/10/22 02:49:16;;;;;;;4.05;2.40;;;;;;;;;;5006421;28;20453;-77
2023/10/22 02:51:41;;;;;;;6.05;2.50;;;;;;;;;;5005813;28;20088;-77
2023/10/22 02:54:06;;;;;;;4.75;2.50;;;;;;;;;;5006050;28;20065;-77
2023/10/22 02:56:32;;;;;;;4.97;2.50;;;;;;;;;;5005545;28;20038;-77
2023/10/22 02:58:57;;;;;;;7.32;2.53;;;;;;;;;;5005860;28;20479;-77
2023/10/22 03:01:23;;;;;;;3.95;1.92;;;;;;;;;;5006429;28;20026;-77
2023/10/22 03:03:48;;;;;;;3.78;1.83;;;;;;;;;;5005303;28;20512;-77
2023/10/22 03:06:14;;;;;;;3.88;1.90;;;;;;;;;;5005703;28;20527;-77
2023/10/22 03:08:41;;;;;;;3.83;1.70;;;;;;;;;;5004991;28;20084;-77
2023/10/22 03:11:14;;;;;;;4.57;1.70;;;;;;;;;;5007961;28;20045;-78
2023/10/22 03:13:39;;;;;;;3.38;1.60;;;;;;;;;;5004375;28;20026;-77
2023/10/22 03:16:14;;;;;;;4.85;1.85;;;;;;;;;;4997179;28;20121;-77
2023/10/22 03:18:41;;;;;;;5.07;1.80;;;;;;;;;;4984570;28;20064;-77
2023/10/22 03:21:25;;;;;;;6.25;1.60;;;;;;;;;;4985676;28;20043;-77
2023/10/22 03:23:50;;;;;;;3.08;1.52;;;;;;;;;;4985957;28;20035;-77
2023/10/22 03:26:16;;;;;;;1.92;1.30;;;;;;;;;;4984144;28;20583;-77
2023/10/22 03:28:45;;;;;;;2.15;1.17;;;;;;;;;;4984239;28;20018;-77
2023/10/22 03:31:11;;;;;;;2.38;1.67;;;;;;;;;;4984339;28;20148;-77
2023/10/22 03:33:36;;;;;;;3.22;1.80;;;;;;;;;;4984987;28;20573;-78
2023/10/22 03:36:04;;;;;;;3.28;1.35;;;;;;;;;;4985864;28;20041;-77
2023/10/22 03:38:29;;;;;;;3.20;1.38;;;;;;;;;;4983152;28;20053;-77
2023/10/22 03:41:03;;;;;;;8.13;1.42;;;;;;;;;;4985712;28;20031;-77
2023/10/22 03:43:29;;;;;;;2.88;1.30;;;;;;;;;;4984077;28;20034;-77
2023/10/22 03:45:55;;;;;;;2.92;1.40;;;;;;;;;;4985872;28;20080;-78
2023/10/22 03:48:25;;;;;;;2.60;1.13;;;;;;;;;;4985402;28;20042;-77
2023/10/22 03:50:50;;;;;;;1.67;1.10;;;;;;;;;;4985291;28;20044;-77
2023/10/22 03:53:16;;;;;;;3.72;1.40;;;;;;;;;;4985124;28;20092;-77
2023/10/22 03:55:41;;;;;;;1.75;1.00;;;;;;;;;;4985396;28;20031;-77
2023/10/22 03:58:07;;;;;;;5.57;1.45;;;;;;;;;;4992298;28;20544;-78
2023/10/22 04:00:32;;;;;;;3.33;1.55;;;;;;;;;;5004233;28;20042;-77
2023/10/22 04:02:58;;;;;;;2.95;1.20;;;;;;;;;;5003444;28;20041;-77
2023/10/22 04:05:24;;;;;;;2.25;1.10;;;;;;;;;;5004486;28;20045;-78
2023/10/22 04:07:49;;;;;;;4.60;1.90;;;;;;;;;;5003416;28;20464;-78
2023/10/22 04:10:15;;;;;;;2.78;1.27;;;;;;;;;;5003266;28;20120;-78
2023/10/22 04:12:41;;;;;;;1.67;0.85;;;;;;;;;;4999412;28;20061;-78
2023/10/22 04:15:07;;;;;;;3.63;0.95;;;;;;;;;;4982977;28;20093;-77
2023/10/22 04:17:32;;;;;;;2.28;1.17;;;;;;;;;;4985277;28;20073;-78
2023/10/22 04:19:58;;;;;;;1.58;1.00;;;;;;;;;;4983865;28;20516;-77
2023/10/22 04:22:23;;;;;;;2.33;1.00;;;;;;;;;;5004877;28;20496;-77
2023/10/22 04:24:48;;;;;;;1.50;0.80;;;;;;;;;;5004313;28;20049;-77
2023/10/22 04:27:14;;;;;;;2.08;1.10;;;;;;;;;;5003442;28;20508;-77
2023/10/22 04:29:40;;;;;;;3.13;1.00;;;;;;;;;;5005359;28;20041;-77
2023/10/22 04:32:05;;;;;;;1.65;1.13;;;;;;;;;;5009505;28;20026;-77
2023/10/22 04:34:35;;;;;;;2.17;1.00;;;;;;;;;;5017993;28;20049;-77
2023/10/22 04:37:01;;;;;;;2.97;1.30;;;;;;;;;;5023653;28;20021;-77
2023/10/22 04:39:26;;;;;;;2.42;1.10;;;;;;;;;;5015129;28;20026;-77
2023/10/22 04:41:52;;;;;;;3.70;1.10;;;;;;;;;;5005444;28;20034;-77
2023/10/22 04:44:17;;;;;;;2.63;0.90;;;;;;;;;;5005031;28;20587;-77
2023/10/22 04:46:42;;;;;;;1.00;0.90;;;;;;;;;;5004411;28;20104;-77
2023/10/22 04:49:08;;;;;;;3.22;1.30;;;;;;;;;;5004675;28;20045;-78
2023/10/22 04:51:35;;;;;;;3.85;1.10;;;;;;;;;;5002687;28;20644;-77
2023/10/22 04:54:00;;;;;;;1.83;1.00;;;;;;;;;;5003465;28;20034;-77
2023/10/22 04:56:27;;;;;;;3.85;0.90;;;;;;;;;;5003753;28;20092;-77
2023/10/22 04:58:52;;;;;;;6.07;1.20;;;;;;;;;;5003938;28;20050;-77
2023/10/22 05:01:17;;;;;;;1.35;0.95;;;;;;;;;;5002535;28;20029;-77
2023/10/22 05:03:43;;;;;;;1.50;1.00;;;;;;;;;;5003575;28;20034;-77
2023/10/22 05:06:08;;;;;;;1.73;1.17;;;;;;;;;;5003299;28;20042;-77
2023/10/22 05:08:35;;;;;;;1.42;0.90;;;;;;;;;;5004063;28;20034;-77
2023/10/22 05:11:04;;;;;;;1.95;0.90;;;;;;;;;;5002100;28;20026;-77
2023/10/22 05:13:30;;;;;;;2.15;1.05;;;;;;;;;;5000569;28;20581;-77
2023/10/22 05:15:56;;;;;;;2.25;1.08;;;;;;;;;;5002330;28;20109;-77
2023/10/22 05:18:22;;;;;;;0.80;0.80;;;;;;;;;;5003466;28;20038;-77
2023/10/22 05:20:48;;;;;;;1.40;0.80;;;;;;;;;;5003349;28;20176;-77
2023/10/22 05:23:14;;;;;;;2.45;1.00;;;;;;;;;;5005997;28;20772;-77
2023/10/22 05:25:39;;;;;;;3.03;1.05;;;;;;;;;;5007644;28;20030;-77
2023/10/22 05:28:05;;;;;;;2.65;1.00;;;;;;;;;;5008311;28;20026;-77
2023/10/22 05:30:31;;;;;;;1.58;0.90;;;;;;;;;;5006157;28;20115;-77
2023/10/22 05:32:57;;;;;;;1.63;0.95;;;;;;;;;;5007489;28;20038;-77
2023/10/22 05:35:22;;;;;;;2.13;0.90;;;;;;;;;;5007875;28;20615;-76
2023/10/22 05:37:49;;;;;;;1.75;0.85;;;;;;;;;;5006395;28;20083;-78
2023/10/22 05:40:15;;;;;;;2.92;1.00;;;;;;;;;;5007917;28;20780;-77
2023/10/22 05:42:41;;;;;;;1.83;1.00;;;;;;;;;;5007160;28;20099;-77
2023/10/22 05:45:07;;;;;;;2.20;0.80;;;;;;;;;;5007469;28;20038;-77
2023/10/22 05:47:33;;;;;;;1.30;0.80;;;;;;;;;;5006737;28;20041;-77
2023/10/22 05:49:59;;;;;;;1.77;0.90;;;;;;;;;;5006887;28;20338;-77
2023/10/22 05:52:26;;;;;;;3.88;0.90;;;;;;;;;;5010679;28;20022;-77
2023/10/22 05:54:52;;;;;;;2.88;0.90;;;;;;;;;;5019519;28;20037;-77
2023/10/22 05:57:20;;;;;;;2.30;0.90;;;;;;;;;;5017041;28;20061;-77
2023/10/22 05:59:45;;;;;;;2.88;1.10;;;;;;;;;;5005650;28;20050;-77
2023/10/22 06:02:10;;;;;;;2.00;0.80;;;;;;;;;;5007126;28;20117;-77
2023/10/22 06:04:36;;;;;;;1.77;0.98;;;;;;;;;;5006599;28;20112;-78
2023/10/22 06:07:01;;;;;;;1.38;0.88;;;;;;;;;;5006714;28;20022;-77
2023/10/22 06:09:26;;;;;;;1.65;1.10;;;;;;;;;;5005770;28;20045;-77
2023/10/22 06:11:52;;;;;;;1.30;0.90;;;;;;;;;;5006483;28;20042;-77
2023/10/22 06:14:17;;;;;;;1.75;1.05;;;;;;;;;;4988392;28;20045;-78
2023/10/22 06:16:42;;;;;;;3.55;1.17;;;;;;;;;;4986935;28;20602;-77
2023/10/22 06:19:08;;;;;;;1.48;1.10;;;;;;;;;;4988024;28;20720;-77
2023/10/22 06:21:33;;;;;;;1.85;1.30;;;;;;;;;;4986876;28;20421;-77
2023/10/22 06:23:59;;;;;;;2.72;1.45;;;;;;;;;;4986938;28;20426;-78
2023/10/22 06:26:25;;;;;;;1.88;1.20;;;;;;;;;;4987174;28;20034;-77
2023/10/22 06:28:51;;;;;;;3.45;1.10;;;;;;;;;;4986434;28;20092;-78
2023/10/22 06:31:16;;;;;;;0.98;0.80;;;;;;;;;;4985633;28;20026;-77
2023/10/22 06:33:42;;;;;;;1.70;1.08;;;;;;;;;;4985104;28;20049;-78
2023/10/22 06:36:15;;;;;;;3.85;1.13;;;;;;;;;;4986297;28;20054;-77
2023/10/22 06:38:42;;;;;;;2.53;0.90;;;;;;;;;;4986653;28;20480;-77
2023/10/22 06:41:13;;;;;;;1.85;0.90;;;;;;;;;;4986078;28;20041;-77
2023/10/22 06:43:38;;;;;;;2.47;1.00;;;;;;;;;;4985028;28;20575;-77
2023/10/22 06:46:04;;;;;;;0.85;0.80;;;;;;;;;;4987236;28;20026;-77
2023/10/22 06:48:29;;;;;;;1.73;0.88;;;;;;;;;;4986505;28;20120;-77
2023/10/22 06:50:55;;;;;;;2.90;1.10;;;;;;;;;;4986167;28;20038;-77
2023/10/22 06:53:20;;;;;;;1.75;0.80;;;;;;;;;;4985986;28;20560;-77
2023/10/22 06:55:46;;;;;;;2.15;0.90;;;;;;;;;;5000945;28;20117;-77
2023/10/22 06:58:11;;;;;;;1.10;0.80;;;;;;;;;;4995109;28;20049;-77
2023/10/22 07:00:36;;;;;;;1.83;1.00;;;;;;;;;;5005859;28;20128;-77
2023/10/22 07:03:01;;;;;;;2.60;1.77;;;;;;;;;;5004107;28;20246;-78
2023/10/22 07:05:27;;;;;;;2.95;1.15;;;;;;;;;;5005051;28;20057;-77
2023/10/22 07:07:52;;;;;;;1.92;0.90;;;;;;;;;;5005956;28;20038;-78
2023/10/22 07:10:17;;;;;;;2.42;1.10;;;;;;;;;;5007685;28;20382;-78
2023/10/22 07:12:43;;;;;;;1.95;1.30;;;;;;;;;;5004677;28;20112;-77
2023/10/22 07:15:12;;;;;;;1.52;1.10;;;;;;;;;;4998056;28;20046;-77
2023/10/22 07:17:38;;;;;;;3.13;0.95;;;;;;;;;;5002012;28;20026;-77
2023/10/22 07:20:05;;;;;;;2.80;1.35;;;;;;;;;;4990685;28;20121;-77
2023/10/22 07:22:31;;;;;;;1.50;0.95;;;;;;;;;;4985795;28;20125;-78
2023/10/22 07:24:56;;;;;;;3.38;1.55;;;;;;;;;;4991069;28;20117;-77
2023/10/22 07:27:21;;;;;;;6.03;2.17;;;;;;;;;;4986445;28;20038;-77
2023/10/22 07:29:47;;;;;;;5.18;2.03;;;;;;;;;;4985863;28;20060;-77
2023/10/22 07:32:12;;;;;;;20.70;6.95;;;;;;;;;;4994063;28;20103;-77
2023/10/22 07:34:37;;;;;;;25.90;8.63;;;;;;;;;;5003673;28;20029;-77
2023/10/22 07:37:03;;;;;;;16.45;6.13;;;;;;;;;;5005061;28;20112;-78
2023/10/22 07:39:29;;;;;;;25.27;9.95;;;;;;;;;;5001926;28;20541;-78
2023/10/22 07:41:54;;;;;;;8.45;3.92;;;;;;;;;;5002225;28;20084;-78
2023/10/22 07:44:19;;;;;;;6.10;2.45;;;;;;;;;;4999145;28;20068;-78
2023/10/22 07:46:45;;;;;;;5.60;2.25;;;;;;;;;;4998272;28;20042;-76
2023/10/22 07:49:11;;;;;;;4.57;1.40;;;;;;;;;;4996082;28;20509;-76
2023/10/22 07:51:37;;;;;;;2.05;1.10;;;;;;;;;;5003108;28;20038;-76
2023/10/22 07:54:02;;;;;;;5.95;2.45;;;;;;;;;;5001965;28;20026;-76
2023/10/22 07:56:28;;;;;;;4.75;1.92;;;;;;;;;;5004577;28;20034;-76
2023/10/22 07:58:53;;;;;;;2.45;1.60;;;;;;;;;;5001079;28;20042;-76
2023/10/22 08:01:19;;;;;;;5.57;2.13;;;;;;;;;;5017677;28;20053;-76
2023/10/22 08:03:45;;;;;;;3.08;2.00;;;;;;;;;;5004568;28;20030;-76
2023/10/22 08:06:11;;;;;;;4.78;1.70;;;;;;;;;;5003559;28;20076;-76
2023/10/22 08:08:36;;;;;;;4.82;1.77;;;;;;;;;;5002542;28;20034;-76
2023/10/22 08:11:03;;;;;;;1.92;0.90;;;;;;;;;;5001883;28;20041;-75
2023/10/22 08:13:29;;;;;;;5.15;1.58;;;;;;;;;;5003901;28;20221;-76
2023/10/22 08:15:56;;;;;;;3.88;1.17;;;;;;;;;;5003501;28;20049;-76
2023/10/22 08:18:22;;;;;;;2.08;1.17;;;;;;;;;;5002423;28;20121;-76
2023/10/22 08:20:47;;;;;;;2.50;0.88;;;;;;;;;;4997198;28;20176;-75
2023/10/22 08:23:13;;;;;;;1.50;0.90;;;;;;;;;;4999358;28;20117;-76
2023/10/22 08:25:38;;;;;;;1.50;1.10;;;;;;;;;;5003202;28;20505;-76
2023/10/22 08:28:04;;;;;;;1.85;1.20;;;;;;;;;;4992567;28;20093;-76
2023/10/22 08:30:29;;;;;;;1.70;1.30;;;;;;;;;;5004716;28;20034;-76
2023/10/22 08:32:55;;;;;;;2.13;1.30;;;;;;;;;;5007186;28;20425;-76
2023/10/22 08:35:21;;;;;;;5.03;1.50;;;;;;;;;;5015824;28;20034;-76
2023/10/22 08:37:46;;;;;;;3.67;1.52;;;;;;;;;;5015839;28;20025;-76
2023/10/22 08:40:12;;;;;;;1.73;1.30;;;;;;;;;;5004307;28;20022;-76
2023/10/22 08:42:38;;;;;;;2.80;1.55;;;;;;;;;;5001526;28;20049;-76
2023/10/22 08:45:06;;;;;;;3.90;1.70;;;;;;;;;;5002237;28;20038;-76
2023/10/22 08:47:34;;;;;;;3.40;2.00;;;;;;;;;;5003236;28;20053;-76
2023/10/22 08:50:01;;;;;;;2.90;2.00;;;;;;;;;;5003256;28;20527;-77
2023/10/22 08:52:27;;;;;;;4.72;2.00;;;;;;;;;;4997314;28;20076;-76
2023/10/22 08:54:52;;;;;;;4.78;1.80;;;;;;;;;;4983449;28;20042;-76
2023/10/22 08:57:20;;;;;;;3.38;2.13;;;;;;;;;;4983755;28;20066;-75
2023/10/22 08:59:47;;;;;;;3.45;1.70;;;;;;;;;;5001654;28;20524;-77
2023/10/22 09:02:13;;;;;;;3.25;1.58;;;;;;;;;;5000523;28;20037;-72
2023/10/22 09:04:39;;;;;;;3.35;1.75;;;;;;;;;;5001421;28;20026;-77
2023/10/22 09:07:04;;;;;;;3.63;1.55;;;;;;;;;;5003487;28;20742;-77
2023/10/22 09:09:33;;;;;;;2.47;1.50;;;;;;;;;;5003414;28;20038;-77
2023/10/22 09:11:59;;;;;;;4.80;1.90;;;;;;;;;;5001569;28;20049;-77
2023/10/22 09:14:25;;;;;;;3.00;1.80;;;;;;;;;;4984286;28;20133;-77
2023/10/22 09:16:50;;;;;;;2.58;1.50;;;;;;;;;;4982677;28;20129;-77
2023/10/22 09:19:36;;;;;;;3.83;1.95;;;;;;;;;;4982606;28;20510;-74
2023/10/22 09:22:03;;;;;;;2.33;1.60;;;;;;;;;;4983722;28;20038;-76
2023/10/22 09:24:28;;;;;;;3.25;1.90;;;;;;;;;;4983864;28;20121;-74
2023/10/22 09:26:54;;;;;;;5.68;2.08;;;;;;;;;;4983001;28;20054;-74
2023/10/22 09:29:19;;;;;;;2.70;1.92;;;;;;;;;;4983577;28;20169;-74
2023/10/22 09:31:53;;;;;;;2.17;1.60;;;;;;;;;;4983486;28;20060;-74
2023/10/22 09:34:32;;;;;;;2.38;1.60;;;;;;;;;;4984464;28;20081;-74
2023/10/22 09:36:58;;;;;;;3.38;1.75;;;;;;;;;;4998882;28;20100;-74
2023/10/22 09:39:37;;;;;;;2.88;1.50;;;;;;;;;;4982295;28;20122;-74
2023/10/22 09:42:06;;;;;;;4.95;1.67;;;;;;;;;;4983920;28;20717;-76
2023/10/22 09:44:33;;;;;;;2.50;1.52;;;;;;;;;;4983917;28;20469;-75
2023/10/22 09:47:03;;;;;;;2.30;1.40;;;;;;;;;;4984615;28;20088;-76
2023/10/22 09:49:30;;;;;;;2.28;1.63;;;;;;;;;;4984849;28;20041;-75
2023/10/22 09:51:59;;;;;;;3.13;1.95;;;;;;;;;;4983885;28;20050;-76
2023/10/22 09:54:37;;;;;;;2.40;1.90;;;;;;;;;;4990264;28;20129;-76
2023/10/22 09:57:13;;;;;;;3.63;2.10;;;;;;;;;;4999991;28;20061;-76
2023/10/22 09:59:39;;;;;;;3.85;1.85;;;;;;;;;;4993374;28;20129;-76
2023/10/22 10:02:07;;;;;;;4.05;2.30;;;;;;;;;;4985906;28;20053;-75
2023/10/22 10:04:34;;;;;;;2.97;1.90;;;;;;;;;;4984388;28;20041;-75
2023/10/22 10:07:03;;;;;;;3.97;1.92;;;;;;;;;;4982971;28;20037;-76
2023/10/22 10:09:30;;;;;;;5.10;2.00;;;;;;;;;;4987318;28;20118;-75
2023/10/22 10:11:57;;;;;;;2.78;1.90;;;;;;;;;;4986863;28;20057;-76
2023/10/22 10:14:41;;;;;;;3.20;1.77;;;;;;;;;;5006242;28;20042;-76
2023/10/22 10:17:07;;;;;;;3.33;2.15;;;;;;;;;;5005088;28;20037;-75
2023/10/22 10:19:33;;;;;;;5.43;2.70;;;;;;;;;;5006130;28;20388;-75
2023/10/22 10:21:58;;;;;;;3.53;1.70;;;;;;;;;;5005111;28;20681;-75
2023/10/22 10:24:25;;;;;;;4.93;2.30;;;;;;;;;;5005974;28;20045;-75
2023/10/22 10:26:52;;;;;;;4.05;1.70;;;;;;;;;;5004785;28;20056;-75
2023/10/22 10:29:24;;;;;;;3.13;1.70;;;;;;;;;;5006756;28;20042;-75
2023/10/22 10:31:51;;;;;;;3.55;1.55;;;;;;;;;;5005908;28;20049;-75
2023/10/22 10:34:25;;;;;;;4.63;2.47;;;;;;;;;;5006102;28;20021;-76
2023/10/22 10:36:52;;;;;;;4.40;1.95;;;;;;;;;;5005800;28;20042;-75
2023/10/22 10:39:41;;;;;;;3.85;2.30;;;;;;;;;;5005782;28;20922;-75
2023/10/22 10:42:07;;;;;;;2.78;1.20;;;;;;;;;;5005309;28;20038;-75
2023/10/22 10:44:55;;;;;;;4.35;1.63;;;;;;;;;;5005782;28;20116;-75
2023/10/22 10:47:21;;;;;;;1.85;1.30;;;;;;;;;;5003849;28;20038;-75
2023/10/22 10:50:11;;;;;;;4.10;1.85;;;;;;;;;;5005445;28;20045;-75
2023/10/22 10:52:37;;;;;;;2.20;1.33;;;;;;;;;;5005527;28;20028;-75
2023/10/22 10:55:09;;;;;;;5.18;2.00;;;;;;;;;;5005248;28;20033;-75
2023/10/22 10:57:39;;;;;;;3.70;1.60;;;;;;;;;;5001350;28;20096;-75
2023/10/22 11:00:09;;;;;;;3.00;1.58;;;;;;;;;;4985196;28;20533;-75
2023/10/22 11:02:45;;;;;;;5.47;1.90;;;;;;;;;;4985620;28;20488;-75
2023/10/22 11:05:11;;;;;;;3.42;1.75;;;;;;;;;;4984154;28;20034;-75
2023/10/22 11:07:37;;;;;;;3.03;1.90;;;;;;;;;;4985370;28;20027;-75
2023/10/22 11:10:14;;;;;;;4.15;1.80;;;;;;;;;;4987188;28;20397;-75
2023/10/22 11:12:40;;;;;;;4.68;2.17;;;;;;;;;;4994425;28;20129;-75
2023/10/22 11:15:08;;;;;;;2.97;1.92;;;;;;;;;;5017171;28;20040;-75
2023/10/22 11:17:34;;;;;;;2.28;1.50;;;;;;;;;;5016333;28;20057;-75
2023/10/22 11:19:59;;;;;;;1.90;1.60;;;;;;;;;;5003009;28;20041;-75
2023/10/22 11:22:25;;;;;;;3.22;1.60;;;;;;;;;;5003720;28;20405;-76
2023/10/22 11:24:51;;;;;;;2.85;1.70;;;;;;;;;;5004552;28;20034;-75
2023/10/22 11:27:17;;;;;;;1.63;1.40;;;;;;;;;;5004843;28;20085;-76
2023/10/22 11:29:49;;;;;;;4.40;1.92;;;;;;;;;;4992954;28;20564;-75
2023/10/22 11:32:16;;;;;;;3.55;1.60;;;;;;;;;;4985465;28;20034;-75
2023/10/22 11:34:49;;;;;;;2.20;1.60;;;;;;;;;;4985126;28;20558;-75
2023/10/22 11:37:18;;;;;;;2.40;1.42;;;;;;;;;;4985362;28;20022;-75
2023/10/22 11:39:44;;;;;;;7.03;2.33;;;;;;;;;;4985595;28;20069;-75
2023/10/22 11:42:10;;;;;;;2.50;1.45;;;;;;;;;;4986052;28;20030;-75
2023/10/22 11:44:36;;;;;;;1.75;1.52;;;;;;;;;;5000048;28;20521;-75
2023/10/22 11:47:21;;;;;;;2.95;1.80;;;;;;;;;;5003042;28;20033;-75
2023/10/22 11:49:47;;;;;;;5.68;1.50;;;;;;;;;;5004376;28;20029;-75
2023/10/22 11:52:38;;;;;;;3.85;1.88;;;;;;;;;;5005104;28;20393;-75
2023/10/22 11:55:06;;;;;;;2.83;1.70;;;;;;;;;;5002899;28;20038;-75
2023/10/22 11:57:32;;;;;;;3.95;1.70;;;;;;;;;;5004375;28;20045;-75
2023/10/22 11:59:58;;;;;;;2.30;1.60;;;;;;;;;;5001999;28;20597;-75
2023/10/22 12:02:23;;;;;;;3.90;1.90;;;;;;;;;;5002922;28;20045;-75
2023/10/22 12:04:48;;;;;;;4.03;1.48;;;;;;;;;;5002734;28;20046;-75
2023/10/22 12:07:14;;;;;;;1.95;1.40;;;;;;;;;;5003839;28;20024;-76
2023/10/22 12:09:43;;;;;;;3.83;1.73;;;;;;;;;;5004397;28;20144;-75
2023/10/22 12:12:08;;;;;;;3.75;1.60;;;;;;;;;;5000470;28;20042;-75
2023/10/22 12:14:33;;;;;;;4.30;2.17;;;;;;;;;;4984404;28;20048;-76
2023/10/22 12:16:59;;;;;;;3.22;1.55;;;;;;;;;;4984070;28;20077;-75
2023/10/22 12:19:24;;;;;;;3.72;1.50;;;;;;;;;;4984527;28;20105;-76
2023/10/22 12:21:49;;;;;;;3.22;1.40;;;;;;;;;;4983919;28;20034;-76
2023/10/22 12:24:15;;;;;;;1.58;1.42;;;;;;;;;;4982558;28;20433;-75
2023/10/22 12:26:41;;;;;;;2.53;1.27;;;;;;;;;;4982857;28;20129;-76
2023/10/22 12:29:07;;;;;;;3.33;1.40;;;;;;;;;;4983239;28;20042;-75
2023/10/22 12:31:32;;;;;;;2.97;1.45;;;;;;;;;;5002368;28;20044;-76
2023/10/22 12:34:00;;;;;;;3.35;1.23;;;;;;;;;;5014760;28;20022;-76
2023/10/22 12:36:25;;;;;;;1.92;1.30;;;;;;;;;;5021913;28;20033;-76
2023/10/22 12:38:54;;;;;;;1.50;1.10;;;;;;;;;;5012478;28;20048;-75
2023/10/22 12:41:21;;;;;;;5.05;1.50;;;;;;;;;;5005883;28;20056;-75
2023/10/22 12:43:47;;;;;;;2.67;1.10;;;;;;;;;;5005027;28;20034;-76
2023/10/22 12:46:12;;;;;;;2.28;1.27;;;;;;;;;;5002460;28;20623;-76
2023/10/22 12:48:37;;;;;;;1.55;1.20;;;;;;;;;;5003431;28;20030;-75
2023/10/22 12:51:03;;;;;;;1.60;1.20;;;;;;;;;;5003540;28;20033;-76
2023/10/22 12:53:29;;;;;;;1.98;1.40;;;;;;;;;;5003502;28;20563;-76
2023/10/22 12:55:55;;;;;;;2.83;1.13;;;;;;;;;;5001493;28;20026;-78
2023/10/22 12:58:21;;;;;;;4.45;1.30;;;;;;;;;;5000338;28;20057;-79
2023/10/22 13:00:48;;;;;;;3.58;1.20;;;;;;;;;;5002398;28;20038;-78
2023/10/22 13:03:14;;;;;;;2.28;1.20;;;;;;;;;;5000349;28;20433;-79
2023/10/22 13:05:40;;;;;;;2.97;1.33;;;;;;;;;;5002876;28;20516;-79
2023/10/22 13:08:07;;;;;;;3.70;1.30;;;;;;;;;;5001587;28;20112;-79
2023/10/22 13:10:32;;;;;;;2.50;1.30;;;;;;;;;;5002323;28;20022;-78
2023/10/22 13:13:01;;;;;;;3.90;1.30;;;;;;;;;;4999276;28;20022;-79
2023/10/22 13:15:26;;;;;;;1.35;1.20;;;;;;;;;;4999363;28;20073;-79
2023/10/22 13:17:53;;;;;;;3.20;1.30;;;;;;;;;;4999364;28;20068;-79
2023/10/22 13:20:21;;;;;;;4.00;1.55;;;;;;;;;;5000707;28;20080;-78
2023/10/22 13:22:47;;;;;;;5.35;1.50;;;;;;;;;;4998762;28;20029;-79
2023/10/22 13:25:12;;;;;;;3.13;1.20;;;;;;;;;;4997877;28;20025;-79
2023/10/22 13:27:38;;;;;;;1.73;1.13;;;;;;;;;;4986676;28;20061;-80
2023/10/22 13:30:04;;;;;;;4.10;1.15;;;;;;;;;;4993479;28;20483;-81
2023/10/22 13:32:30;;;;;;;3.00;1.50;;;;;;;;;;5001543;28;20041;-80
2023/10/22 13:34:56;;;;;;;1.70;1.20;;;;;;;;;;4998848;28;20042;-81
2023/10/22 13:37:21;;;;;;;2.78;1.20;;;;;;;;;;5000126;28;20022;-82
2023/10/22 13:39:46;;;;;;;1.20;1.02;;;;;;;;;;5002413;28;20088;-81
2023/10/22 13:42:12;;;;;;;2.22;1.30;;;;;;;;;;5003184;28;20128;-81
2023/10/22 13:44:38;;;;;;;0.70;0.70;;;;;;;;;;4997769;28;20046;-80
2023/10/22 13:47:03;;;;;;;0.90;0.80;;;;;;;;;;4998629;28;20042;-81
2023/10/22 13:49:30;;;;;;;2.22;0.80;;;;;;;;;;4988756;28;20413;-81
2023/10/22 13:51:55;;;;;;;1.30;1.00;;;;;;;;;;4989408;28;20042;-81
2023/10/22 13:54:20;;;;;;;1.73;1.17;;;;;;;;;;4999078;28;20069;-81
2023/10/22 13:56:49;;;;;;;0.95;0.85;;;;;;;;;;4996796;28;20038;-81
2023/10/22 13:59:15;;;;;;;1.42;0.90;;;;;;;;;;5001890;28;20061;-81
2023/10/22 14:01:41;;;;;;;2.55;0.70;;;;;;;;;;4983552;28;20034;-80
2023/10/22 14:04:07;;;;;;;1.00;0.90;;;;;;;;;;5005551;28;20056;-81
2023/10/22 14:06:32;;;;;;;2.85;0.90;;;;;;;;;;5005400;28;20038;-81
2023/10/22 14:08:57;;;;;;;1.42;1.02;;;;;;;;;;5006141;28;20030;-81
2023/10/22 14:11:25;;;;;;;3.08;1.00;;;;;;;;;;4986114;28;20042;-81
2023/10/22 14:13:51;;;;;;;1.30;0.88;;;;;;;;;;4999820;28;20129;-81
2023/10/22 14:16:17;;;;;;;1.00;0.90;;;;;;;;;;5005906;28;20104;-82
2023/10/22 14:18:45;;;;;;;1.13;0.77;;;;;;;;;;4999006;28;20040;-80
2023/10/22 14:21:12;;;;;;;1.33;1.00;;;;;;;;;;4999855;28;20510;-81
2023/10/22 14:23:37;;;;;;;2.85;0.95;;;;;;;;;;4984985;28;20496;-81
2023/10/22 14:26:03;;;;;;;3.13;1.00;;;;;;;;;;4983867;28;20608;-81
2023/10/22 14:28:28;;;;;;;0.98;0.88;;;;;;;;;;4985930;28;20161;-81
2023/10/22 14:30:53;;;;;;;0.70;0.70;;;;;;;;;;4983968;28;20855;-81
2023/10/22 14:33:19;;;;;;;1.35;0.80;;;;;;;;;;4991362;28;20144;-81
2023/10/22 14:35:44;;;;;;;1.33;0.80;;;;;;;;;;4998051;28;20049;-81
2023/10/22 14:38:10;;;;;;;2.53;1.00;;;;;;;;;;4983550;28;20039;-81
2023/10/22 14:40:39;;;;;;;1.20;0.80;;;;;;;;;;4983715;28;20030;-81